Terminal Aerodrome Forecast
Issued by NWS

Home | Current Version | Previous Version | Text Only | Print | Product List | Glossary Off
Versions: 1 2 3 4 5 6 7 8 9 10 11 12

000
FTUS45 KGGW 181720
TAFOLF
TAF
KOLF 181720Z 1818/1918 VRB06KT P6SM SKC
     FM191000 22007KT P6SM FEW190
     FM191200 27007KT P6SM FEW210=

USA.gov is the U.S. government's official web portal to all federal, state and local government web resources and services.